createdAt,value
2017-06-05T00:07:18.000Z,38.279
2017-06-05T00:17:18.000Z,38.243
2017-06-05T00:27:18.000Z,38.271
2017-06-05T00:37:18.000Z,38.311
2017-06-05T00:47:19.000Z,38.397
2017-06-05T00:57:18.000Z,38.47
2017-06-05T01:07:19.000Z,38.556
2017-06-05T01:17:18.000Z,38.817
2017-06-05T01:27:19.000Z,38.771
2017-06-05T01:37:18.000Z,38.865
2017-06-05T01:47:21.000Z,38.796
2017-06-05T01:57:18.000Z,38.782
2017-06-05T02:07:19.000Z,38.702
2017-06-05T02:17:18.000Z,38.698
2017-06-05T02:27:19.000Z,38.717
2017-06-05T02:37:18.000Z,38.701
2017-06-05T02:47:19.000Z,38.73
2017-06-05T02:57:18.000Z,38.737
2017-06-05T03:07:24.000Z,38.692
2017-06-05T03:17:18.000Z,38.842
2017-06-05T03:27:19.000Z,38.752
2017-06-05T03:37:18.000Z,38.707
2017-06-05T03:47:19.000Z,38.661
2017-06-05T03:57:19.000Z,38.55
2017-06-05T04:07:20.000Z,38.548
2017-06-05T04:17:19.000Z,38.438
2017-06-05T04:27:19.000Z,38.416
2017-06-05T04:37:19.000Z,38.359
2017-06-05T04:47:19.000Z,38.26
2017-06-05T04:57:19.000Z,38.12
2017-06-05T05:07:19.000Z,38.097
2017-06-05T05:17:19.000Z,38.085
2017-06-05T05:27:19.000Z,38.019
2017-06-05T05:37:19.000Z,37.76
2017-06-05T05:47:19.000Z,37.631
2017-06-05T05:57:20.000Z,37.543
2017-06-05T06:07:20.000Z,37.436
2017-06-05T06:17:19.000Z,37.295
2017-06-05T06:27:19.000Z,37.221
2017-06-05T06:37:19.000Z,36.997
2017-06-05T06:47:19.000Z,36.888
2017-06-05T06:57:19.000Z,36.662
2017-06-05T07:07:19.000Z,36.466
2017-06-05T07:17:21.000Z,35.992
2017-06-05T07:27:19.000Z,35.873
2017-06-05T07:37:21.000Z,35.702
2017-06-05T07:47:19.000Z,35.638
2017-06-05T07:57:19.000Z,35.358
2017-06-05T08:07:19.000Z,35.134
2017-06-05T08:17:19.000Z,34.971
2017-06-05T08:27:20.000Z,34.661
2017-06-05T08:37:19.000Z,34.193
2017-06-05T08:47:19.000Z,33.943
2017-06-05T08:57:29.000Z,33.457
2017-06-05T09:07:19.000Z,33.199
2017-06-05T09:17:20.000Z,32.887
2017-06-05T09:27:19.000Z,32.441
2017-06-05T09:37:20.000Z,32.694
2017-06-05T09:47:19.000Z,32.57
2017-06-05T09:57:20.000Z,32.587
2017-06-05T10:07:19.000Z,32.679
2017-06-05T10:17:19.000Z,32.466
2017-06-05T10:27:21.000Z,32.676
2017-06-05T10:37:19.000Z,32.628
2017-06-05T10:47:20.000Z,32.381
2017-06-05T10:57:21.000Z,32.473
2017-06-05T11:07:20.000Z,32.444
2017-06-05T11:17:19.000Z,32.154
2017-06-05T11:27:21.000Z,32.102
2017-06-05T11:37:19.000Z,32.03
2017-06-05T11:47:20.000Z,32.089
2017-06-05T11:57:23.000Z,32.06
2017-06-05T12:07:20.000Z,32.041
2017-06-05T12:17:20.000Z,31.933
2017-06-05T12:27:22.000Z,31.902
2017-06-05T12:37:21.000Z,32.121
2017-06-05T12:47:20.000Z,32.581
2017-06-05T12:57:24.000Z,32.416
2017-06-05T13:07:20.000Z,32.723
2017-06-05T13:17:20.000Z,32.474
2017-06-05T13:27:20.000Z,32.343
2017-06-05T13:37:20.000Z,32.399
2017-06-05T13:47:20.000Z,32.824
2017-06-05T13:57:20.000Z,32.902
2017-06-05T14:07:20.000Z,32.708
2017-06-05T14:17:20.000Z,33.153
2017-06-05T14:27:20.000Z,33.338
2017-06-05T14:37:20.000Z,32.915
2017-06-05T14:47:20.000Z,32.73
2017-06-05T14:57:20.000Z,33.242
2017-06-05T15:07:20.000Z,33.144
2017-06-05T15:17:20.000Z,33.416
2017-06-05T15:27:20.000Z,33.297
2017-06-05T15:37:20.000Z,33.297
2017-06-05T15:47:20.000Z,33.426
2017-06-05T15:57:20.000Z,33.513
2017-06-05T16:07:20.000Z,33.263
2017-06-05T16:17:20.000Z,33.262
2017-06-05T16:27:20.000Z,33.176
2017-06-05T16:37:20.000Z,33.057
2017-06-05T16:47:20.000Z,33.528
2017-06-05T16:57:21.000Z,33.181
2017-06-05T17:07:21.000Z,33.391
2017-06-05T17:17:23.000Z,33.494
2017-06-05T17:27:20.000Z,33.671
2017-06-05T17:37:22.000Z,33.423
2017-06-05T17:47:21.000Z,33.546
2017-06-05T17:57:20.000Z,33.689
2017-06-05T18:07:21.000Z,33.625
2017-06-05T18:17:20.000Z,33.451
2017-06-05T18:27:20.000Z,33.453
2017-06-05T18:37:22.000Z,33.584
2017-06-05T18:47:20.000Z,33.803
2017-06-05T18:57:23.000Z,34.011
2017-06-05T19:07:21.000Z,34.262
2017-06-05T19:17:21.000Z,34.092
2017-06-05T19:27:21.000Z,34.957
2017-06-05T19:37:21.000Z,35.472
2017-06-05T19:47:21.000Z,35.201
2017-06-05T19:57:21.000Z,35.23
2017-06-05T20:07:21.000Z,35.49
2017-06-05T20:17:21.000Z,35.629
2017-06-05T20:27:25.000Z,35.568
2017-06-05T20:37:21.000Z,35.677
2017-06-05T20:47:22.000Z,35.883
2017-06-05T20:57:21.000Z,35.932
2017-06-05T21:07:21.000Z,35.831
2017-06-05T21:17:21.000Z,35.935
2017-06-05T21:27:21.000Z,35.986
2017-06-05T21:37:21.000Z,35.926
2017-06-05T21:47:21.000Z,35.921
2017-06-05T21:57:21.000Z,35.875
2017-06-05T22:07:21.000Z,35.839
2017-06-05T22:17:22.000Z,35.877
2017-06-05T22:27:21.000Z,35.895
2017-06-05T22:37:21.000Z,36.032
2017-06-05T22:47:21.000Z,36.117
2017-06-05T22:57:22.000Z,36.146
2017-06-05T23:07:22.000Z,36.076
2017-06-05T23:17:21.000Z,36.073
2017-06-05T23:27:21.000Z,36.102
2017-06-05T23:37:21.000Z,36.231
2017-06-05T23:47:21.000Z,36.261
2017-06-05T23:57:21.000Z,36.367
